Time;durP1;ratioP1;P1;durP2;ratioP2;P2;SDS_P1;SDS_P2;PMS_P1;PMS_P2;Temp;Humidity;BMP_temperature;BMP_pressure;BME280_temperature;BME280_humidity;BME280_pressure;Samples;Min_cycle;Max_cycle;Signal;HPM_P1;HPM_P2
2023/10/06 00:00:52;;;;;;;8.75;4.70;;;7.30;99.90;;;;;;2078542;28;20784;-70
2023/10/06 00:01:53;;;;;;;10.48;5.03;;;7.30;99.90;;;;;;2070493;28;21265;-69
2023/10/06 00:02:54;;;;;;;5.37;4.00;;;7.30;99.90;;;;;;2061842;28;20316;-70
2023/10/06 00:03:58;;;;;;;7.13;4.57;;;7.30;99.90;;;;;;2062439;28;20221;-70
2023/10/06 00:04:58;;;;;;;5.93;4.05;;;7.30;99.90;;;;;;2064385;28;20213;-69
2023/10/06 00:06:03;;;;;;;7.90;4.82;;;7.30;99.90;;;;;;2071095;28;20250;-70
2023/10/06 00:07:07;;;;;;;7.55;4.90;;;7.10;99.90;;;;;;2080062;28;20235;-70
2023/10/06 00:08:16;;;;;;;9.85;4.93;;;7.10;99.90;;;;;;2079939;28;20267;-70
2023/10/06 00:09:27;;;;;;;7.03;4.75;;;7.10;99.90;;;;;;2071382;28;20277;-70
2023/10/06 00:10:28;;;;;;;8.15;4.75;;;7.20;99.90;;;;;;2080360;28;20229;-70
2023/10/06 00:11:31;;;;;;;6.17;4.30;;;7.10;99.90;;;;;;2080646;28;20229;-70
2023/10/06 00:12:32;;;;;;;10.60;4.80;;;7.10;99.90;;;;;;2072115;28;20225;-70
2023/10/06 00:13:33;;;;;;;5.63;4.27;;;7.00;99.90;;;;;;2071446;28;20614;-70
2023/10/06 00:14:40;;;;;;;7.65;4.88;;;7.10;99.90;;;;;;2076054;28;20618;-70
2023/10/06 00:15:40;;;;;;;7.70;4.18;;;7.00;99.90;;;;;;2081201;28;20234;-69
2023/10/06 00:16:41;;;;;;;8.30;4.27;;;7.00;99.90;;;;;;2079946;28;20694;-70
2023/10/06 00:17:48;;;;;;;8.70;5.03;;;7.00;99.90;;;;;;2080335;28;20228;-69
2023/10/06 00:18:52;;;;;;;8.27;4.85;;;7.00;99.90;;;;;;2080216;28;20256;-70
2023/10/06 00:19:56;;;;;;;7.18;4.70;;;7.00;99.90;;;;;;2080615;28;20745;-69
2023/10/06 00:20:57;;;;;;;8.38;4.60;;;7.00;99.90;;;;;;2080748;28;20320;-70
2023/10/06 00:23:14;;;;;;;6.53;4.13;;;6.90;99.90;;;;;;2071873;28;20225;-70
2023/10/06 00:24:15;;;;;;;7.70;4.50;;;6.90;99.90;;;;;;2073477;28;20229;-70
2023/10/06 00:25:27;;;;;;;8.67;5.10;;;6.90;99.90;;;;;;2072009;28;20201;-70
2023/10/06 00:26:28;;;;;;;8.77;4.57;;;6.80;99.90;;;;;;2073330;28;20661;-70
2023/10/06 00:27:32;;;;;;;8.13;4.60;;;6.80;99.90;;;;;;2073341;28;20237;-70
2023/10/06 00:28:32;;;;;;;8.13;5.10;;;6.70;99.90;;;;;;2072182;28;20225;-70
2023/10/06 00:29:36;;;;;;;7.00;4.43;;;6.60;99.90;;;;;;2071681;28;20225;-70
2023/10/06 00:30:37;;;;;;;6.57;4.32;;;6.60;99.90;;;;;;2076188;28;20228;-70
2023/10/06 00:31:39;;;;;;;7.00;4.27;;;6.70;99.90;;;;;;2080802;28;20578;-70
2023/10/06 00:32:42;;;;;;;9.23;4.63;;;6.70;99.90;;;;;;2071649;28;20703;-70
2023/10/06 00:33:44;;;;;;;7.97;4.50;;;6.70;99.90;;;;;;2072099;28;20221;-70
2023/10/06 00:34:44;;;;;;;9.73;4.80;;;6.70;99.90;;;;;;2072152;28;20746;-70
2023/10/06 00:35:48;;;;;;;6.60;4.43;;;6.70;99.90;;;;;;2071464;28;20232;-68
2023/10/06 00:36:51;;;;;;;7.60;3.80;;;6.70;99.90;;;;;;2072602;28;20241;-70
2023/10/06 00:37:53;;;;;;;6.97;4.80;;;6.70;99.90;;;;;;2072404;28;20240;-70
2023/10/06 00:38:54;;;;;;;6.43;4.35;;;6.70;99.90;;;;;;2071702;28;20253;-70
2023/10/06 00:39:56;;;;;;;12.07;4.97;;;6.70;99.90;;;;;;2071586;28;20305;-70
2023/10/06 00:40:56;;;;;;;7.30;4.45;;;6.70;99.90;;;;;;2079962;28;20221;-70
2023/10/06 00:42:04;;;;;;;7.90;4.90;;;6.70;99.90;;;;;;2079945;28;20633;-70
2023/10/06 00:43:08;;;;;;;8.90;5.03;;;6.60;99.90;;;;;;2078655;28;20586;-70
2023/10/06 00:44:11;;;;;;;7.95;4.80;;;6.60;99.90;;;;;;2079529;28;20188;-70
2023/10/06 00:45:12;;;;;;;6.32;4.40;;;6.60;99.90;;;;;;2080239;28;20255;-70
2023/10/06 00:46:14;;;;;;;8.73;4.80;;;6.60;99.90;;;;;;2080064;28;20734;-70
2023/10/06 00:47:15;;;;;;;6.85;4.50;;;6.60;99.90;;;;;;2080084;28;20252;-70
2023/10/06 00:48:16;;;;;;;9.13;4.90;;;6.50;99.90;;;;;;2079731;28;20181;-70
2023/10/06 00:49:18;;;;;;;7.00;4.67;;;6.60;99.90;;;;;;2080601;28;20434;-70
2023/10/06 00:50:24;;;;;;;7.45;4.43;;;6.50;99.90;;;;;;2070878;28;20196;-71
2023/10/06 00:51:26;;;;;;;9.07;4.85;;;6.50;99.90;;;;;;2072851;28;20236;-70
2023/10/06 00:52:27;;;;;;;8.57;4.60;;;6.50;99.90;;;;;;2070708;28;20310;-70
2023/10/06 00:53:31;;;;;;;7.23;4.80;;;6.60;99.90;;;;;;2063536;28;20261;-70
2023/10/06 00:54:34;;;;;;;8.85;4.40;;;6.60;99.90;;;;;;2079866;28;20319;-70
2023/10/06 00:55:35;;;;;;;9.32;4.55;;;6.60;99.90;;;;;;2071701;28;20253;-70
2023/10/06 00:56:36;;;;;;;8.07;5.32;;;6.60;99.90;;;;;;2067120;28;20612;-70
2023/10/06 00:57:38;;;;;;;6.80;4.27;;;6.60;99.90;;;;;;2070938;28;20225;-70
2023/10/06 00:58:41;;;;;;;9.48;5.32;;;6.60;99.90;;;;;;2071904;28;20248;-70
2023/10/06 00:59:41;;;;;;;8.80;5.13;;;6.50;99.90;;;;;;2074579;28;20236;-70
2023/10/06 01:00:42;;;;;;;8.20;4.23;;;6.40;99.90;;;;;;2072959;28;20691;-70
2023/10/06 01:01:43;;;;;;;6.25;4.82;;;6.40;99.90;;;;;;2076095;28;20225;-70
2023/10/06 01:02:44;;;;;;;7.33;5.00;;;6.40;99.90;;;;;;2070120;28;20237;-70
2023/10/06 01:04:08;;;;;;;8.50;4.00;;;6.30;99.90;;;;;;2071008;28;20284;-70
2023/10/06 01:05:09;;;;;;;8.25;4.95;;;6.30;99.90;;;;;;2068742;28;20565;-70
2023/10/06 01:06:14;;;;;;;8.32;4.90;;;6.30;99.90;;;;;;2073734;28;20825;-70
2023/10/06 01:07:18;;;;;;;11.43;4.93;;;6.30;99.90;;;;;;2069125;28;20590;-70
2023/10/06 01:08:20;;;;;;;7.45;4.40;;;6.40;99.90;;;;;;2079328;28;20708;-70
2023/10/06 01:09:30;;;;;;;7.45;4.57;;;6.40;99.90;;;;;;2080306;28;20232;-70
2023/10/06 01:10:34;;;;;;;11.77;5.15;;;6.40;99.90;;;;;;2079343;28;20229;-70
2023/10/06 01:11:47;;;;;;;9.13;4.70;;;6.40;99.90;;;;;;2079350;28;20232;-70
2023/10/06 01:12:52;;;;;;;9.13;4.55;;;6.50;99.90;;;;;;2069778;28;20769;-70
2023/10/06 01:13:55;;;;;;;7.20;4.57;;;6.40;99.90;;;;;;2079099;28;20232;-70
2023/10/06 01:15:09;;;;;;;6.90;4.60;;;6.40;99.90;;;;;;2079116;28;20761;-70
2023/10/06 01:16:11;;;;;;;10.13;5.05;;;6.40;99.90;;;;;;2066913;28;20310;-70
2023/10/06 01:17:16;;;;;;;7.97;4.97;;;6.40;99.90;;;;;;2063019;28;20190;-70
2023/10/06 01:18:24;;;;;;;10.10;4.75;;;6.50;99.90;;;;;;2069331;28;20204;-70
2023/10/06 01:19:28;;;;;;;7.95;4.30;;;6.50;99.90;;;;;;2071342;28;20230;-70
2023/10/06 01:20:41;;;;;;;8.63;5.20;;;6.40;99.90;;;;;;2071940;28;20295;-70
2023/10/06 01:21:47;;;;;;;9.90;5.05;;;6.50;99.90;;;;;;2072409;28;20233;-70
2023/10/06 01:22:55;;;;;;;10.63;4.90;;;6.50;99.90;;;;;;2064777;28;20222;-69
2023/10/06 01:24:11;;;;;;;8.90;4.82;;;6.40;99.90;;;;;;2063803;28;20237;-69
2023/10/06 01:25:19;;;;;;;7.75;4.63;;;6.40;99.90;;;;;;2069080;28;20216;-69
2023/10/06 01:26:24;;;;;;;6.93;4.05;;;6.40;99.90;;;;;;2074369;28;20197;-70
2023/10/06 01:27:28;;;;;;;9.13;4.88;;;6.30;99.90;;;;;;2079572;28;20224;-70
2023/10/06 01:28:28;;;;;;;7.15;4.22;;;6.30;99.90;;;;;;2079693;28;20255;-70
2023/10/06 01:29:29;;;;;;;8.63;4.47;;;6.20;99.90;;;;;;2062953;28;20292;-70
2023/10/06 01:30:30;;;;;;;6.93;4.80;;;6.20;99.90;;;;;;2063455;28;20230;-70
2023/10/06 01:31:30;;;;;;;8.73;4.77;;;6.20;99.90;;;;;;2078534;28;20649;-70
2023/10/06 01:32:31;;;;;;;9.57;5.07;;;6.20;99.90;;;;;;2070577;28;20225;-70
2023/10/06 01:33:32;;;;;;;6.90;4.87;;;6.20;99.90;;;;;;2078666;28;20228;-70
2023/10/06 01:34:39;;;;;;;8.40;4.53;;;6.20;99.90;;;;;;2079594;28;20252;-70
2023/10/06 01:35:42;;;;;;;9.38;4.82;;;6.20;99.90;;;;;;2076102;28;20307;-70
2023/10/06 01:36:43;;;;;;;7.57;4.45;;;6.20;99.90;;;;;;2071777;28;20245;-70
2023/10/06 01:37:47;;;;;;;7.73;4.60;;;6.20;99.90;;;;;;2078348;28;20259;-70
2023/10/06 01:38:48;;;;;;;6.70;4.68;;;6.20;99.90;;;;;;2073622;28;20759;-69
2023/10/06 01:39:51;;;;;;;6.60;4.40;;;6.20;99.90;;;;;;2065063;28;20228;-70
2023/10/06 01:40:53;;;;;;;9.07;5.00;;;6.20;99.90;;;;;;2077292;28;20331;-70
2023/10/06 01:41:53;;;;;;;7.68;4.40;;;6.20;99.90;;;;;;2070935;28;20232;-70
2023/10/06 01:42:54;;;;;;;6.00;4.47;;;6.20;99.90;;;;;;2063604;28;20248;-70
2023/10/06 01:43:55;;;;;;;5.80;4.57;;;6.20;99.90;;;;;;2078543;28;20233;-70
2023/10/06 01:45:03;;;;;;;9.07;5.07;;;6.20;99.90;;;;;;2062249;28;20460;-70
2023/10/06 01:46:07;;;;;;;8.70;4.28;;;6.20;99.90;;;;;;2068820;28;20225;-70
2023/10/06 01:47:08;;;;;;;7.40;4.82;;;6.10;99.90;;;;;;2070607;28;20193;-70
2023/10/06 01:49:14;;;;;;;7.88;4.90;;;6.10;99.90;;;;;;2072059;28;20186;-70
2023/10/06 01:50:17;;;;;;;9.95;4.85;;;6.10;99.90;;;;;;2073194;28;20184;-70
2023/10/06 01:51:19;;;;;;;7.63;4.78;;;6.10;99.90;;;;;;2080062;28;20228;-70
2023/10/06 01:52:20;;;;;;;8.23;4.70;;;6.10;99.90;;;;;;2078100;28;20253;-70
2023/10/06 01:53:20;;;;;;;8.23;4.57;;;6.10;99.90;;;;;;2078380;28;20230;-70
2023/10/06 01:54:27;;;;;;;7.23;4.80;;;6.10;99.90;;;;;;2070892;28;20234;-70
2023/10/06 01:55:28;;;;;;;6.03;4.75;;;6.10;99.90;;;;;;2071574;28;20634;-70
2023/10/06 01:56:31;;;;;;;10.23;4.77;;;6.10;99.90;;;;;;2078702;28;20241;-70
2023/10/06 01:57:31;;;;;;;12.00;5.53;;;6.10;99.90;;;;;;2079686;28;20232;-69
2023/10/06 01:58:32;;;;;;;10.87;5.73;;;6.10;99.90;;;;;;2078634;28;20586;-70
2023/10/06 01:59:33;;;;;;;10.55;5.28;;;6.10;99.90;;;;;;2078766;28;20722;-70
2023/10/06 02:00:35;;;;;;;9.50;5.27;;;6.10;99.90;;;;;;2070443;28;20245;-70
2023/10/06 02:01:40;;;;;;;6.63;5.10;;;6.10;99.90;;;;;;2067653;28;20315;-70
2023/10/06 02:02:41;;;;;;;7.32;4.93;;;6.10;99.90;;;;;;2073780;28;20233;-69
2023/10/06 02:03:42;;;;;;;7.40;4.40;;;6.00;99.90;;;;;;2070368;28;20236;-70
2023/10/06 02:04:45;;;;;;;7.60;4.73;;;5.90;99.90;;;;;;2070457;28;20287;-69
2023/10/06 02:05:46;;;;;;;6.32;4.57;;;6.00;99.90;;;;;;2068239;28;20233;-70
2023/10/06 02:06:51;;;;;;;8.30;4.90;;;6.00;99.90;;;;;;2070645;28;20283;-70
2023/10/06 02:07:52;;;;;;;8.25;4.72;;;5.90;99.90;;;;;;2071358;28;20230;-70
2023/10/06 02:08:54;;;;;;;11.23;4.85;;;5.90;99.90;;;;;;2071264;28;20614;-69
2023/10/06 02:09:55;;;;;;;8.73;4.93;;;6.00;99.90;;;;;;2071087;28;20252;-69
2023/10/06 02:10:56;;;;;;;10.97;5.33;;;5.90;99.90;;;;;;2078743;28;20259;-69
2023/10/06 02:11:56;;;;;;;7.93;4.50;;;5.90;99.90;;;;;;2079871;28;20649;-69
2023/10/06 02:12:57;;;;;;;9.50;5.30;;;5.90;99.90;;;;;;2078504;28;20315;-69
2023/10/06 02:13:58;;;;;;;7.82;5.25;;;5.90;99.90;;;;;;2078374;28;20224;-69
2023/10/06 02:14:59;;;;;;;9.70;5.30;;;6.00;99.90;;;;;;2078908;28;20649;-69
2023/10/06 02:16:00;;;;;;;9.93;6.00;;;5.90;99.90;;;;;;2079261;28;20303;-69
2023/10/06 02:17:05;;;;;;;8.20;5.10;;;5.90;99.90;;;;;;2077737;28;20346;-70
2023/10/06 02:18:12;;;;;;;9.63;5.55;;;5.80;99.90;;;;;;2079075;28;20268;-69
2023/10/06 02:19:16;;;;;;;7.88;4.80;;;5.90;99.90;;;;;;2076488;28;20177;-69
2023/10/06 02:21:29;;;;;;;7.30;4.88;;;5.90;99.90;;;;;;2070891;28;20233;-69
2023/10/06 02:22:30;;;;;;;9.73;5.55;;;5.80;99.90;;;;;;2072569;28;20726;-70
2023/10/06 02:23:37;;;;;;;9.13;5.00;;;5.90;99.90;;;;;;2070716;28;20300;-70
2023/10/06 02:24:38;;;;;;;9.35;5.18;;;5.90;99.90;;;;;;2073359;28;20221;-69
2023/10/06 02:25:39;;;;;;;7.50;4.90;;;5.90;99.90;;;;;;2071090;28;20226;-69
2023/10/06 02:26:40;;;;;;;10.48;5.72;;;5.80;99.90;;;;;;2077955;28;20220;-70
2023/10/06 02:27:50;;;;;;;7.73;5.00;;;5.80;99.90;;;;;;2079056;28;20774;-69
2023/10/06 02:28:51;;;;;;;8.80;4.88;;;5.80;99.90;;;;;;2076192;28;20718;-70
2023/10/06 02:29:51;;;;;;;8.03;4.73;;;5.90;99.90;;;;;;2072596;28;20240;-70
2023/10/06 02:30:55;;;;;;;7.20;4.53;;;5.80;99.90;;;;;;2069683;28;20229;-70
2023/10/06 02:32:09;;;;;;;8.85;4.57;;;5.90;99.90;;;;;;2070746;28;20236;-70
2023/10/06 02:33:11;;;;;;;7.22;4.35;;;5.80;99.90;;;;;;2069157;28;20232;-70
2023/10/06 02:34:29;;;;;;;7.55;4.32;;;5.80;99.90;;;;;;2054547;28;20187;-70
2023/10/06 02:35:30;;;;;;;8.27;4.30;;;5.80;99.90;;;;;;2067040;28;20774;-70
2023/10/06 02:36:31;;;;;;;9.93;4.93;;;5.80;99.90;;;;;;2078783;28;20235;-70
2023/10/06 02:37:32;;;;;;;7.20;4.53;;;5.80;99.90;;;;;;2078778;28;20266;-70
2023/10/06 02:38:41;;;;;;;9.25;4.50;;;5.80;99.90;;;;;;2070887;28;20295;-70
2023/10/06 02:39:43;;;;;;;7.22;4.63;;;5.80;99.90;;;;;;2064699;28;20285;-70
2023/10/06 02:40:45;;;;;;;7.50;3.80;;;5.80;99.90;;;;;;2078058;28;20281;-70
2023/10/06 02:41:46;;;;;;;8.15;4.55;;;5.80;99.90;;;;;;2075354;28;20229;-70
2023/10/06 02:42:56;;;;;;;7.05;4.32;;;5.80;99.90;;;;;;2070404;28;20324;-70
2023/10/06 02:44:07;;;;;;;10.10;5.30;;;5.80;99.90;;;;;;2071624;28;20699;-70
2023/10/06 02:45:08;;;;;;;10.60;5.03;;;5.70;99.90;;;;;;2077830;28;20696;-70
2023/10/06 02:46:10;;;;;;;12.68;5.60;;;5.70;99.90;;;;;;2077524;28;20268;-70
2023/10/06 02:47:11;;;;;;;13.43;5.43;;;5.70;99.90;;;;;;2078120;28;20207;-70
2023/10/06 02:48:16;;;;;;;8.35;5.22;;;5.70;99.90;;;;;;2078153;28;20181;-70
2023/10/06 02:49:31;;;;;;;9.38;5.38;;;5.70;99.90;;;;;;2078429;28;20219;-69
2023/10/06 02:50:33;;;;;;;9.45;4.90;;;5.60;99.90;;;;;;2072957;28;20632;-69
2023/10/06 02:51:43;;;;;;;7.47;4.35;;;5.60;99.90;;;;;;2078438;28;20807;-69
2023/10/06 02:52:46;;;;;;;7.55;4.60;;;5.60;99.90;;;;;;2078254;28;20315;-69
2023/10/06 02:53:50;;;;;;;7.35;4.80;;;5.60;99.90;;;;;;2070877;28;20311;-70
2023/10/06 02:56:08;;;;;;;9.60;5.20;;;5.70;99.90;;;;;;2069500;28;20221;-69
2023/10/06 02:57:10;;;;;;;7.65;4.63;;;5.60;99.90;;;;;;2077063;28;20322;-70
2023/10/06 02:58:26;;;;;;;10.25;5.15;;;5.60;99.90;;;;;;2078385;28;20186;-69
2023/10/06 02:59:34;;;;;;;8.80;4.97;;;5.60;99.90;;;;;;2069712;28;20229;-70
2023/10/06 03:00:36;;;;;;;7.90;4.57;;;5.60;99.90;;;;;;2079113;28;20233;-70
2023/10/06 03:01:38;;;;;;;10.20;5.28;;;5.60;99.90;;;;;;2077802;28;20232;-70
2023/10/06 03:02:40;;;;;;;10.70;5.43;;;5.60;99.90;;;;;;2078053;28;20273;-70
2023/10/06 03:03:41;;;;;;;9.88;5.20;;;5.60;99.90;;;;;;2069973;28;20299;-70
2023/10/06 03:04:43;;;;;;;7.17;4.87;;;5.60;99.90;;;;;;2070152;28;20312;-69
2023/10/06 03:05:51;;;;;;;9.25;4.82;;;5.60;99.90;;;;;;2070056;28;20327;-70
2023/10/06 03:06:58;;;;;;;9.32;4.80;;;5.60;99.90;;;;;;2071876;28;20232;-69
2023/10/06 03:08:08;;;;;;;8.45;4.60;;;5.60;99.90;;;;;;2076876;28;20221;-70
2023/10/06 03:09:11;;;;;;;8.95;4.80;;;5.60;99.90;;;;;;2073260;28;20225;-70
2023/10/06 03:10:12;;;;;;;10.80;4.90;;;5.60;99.90;;;;;;2078968;28;20191;-70
2023/10/06 03:11:23;;;;;;;8.57;4.60;;;5.60;99.90;;;;;;2079300;28;20212;-69
2023/10/06 03:13:31;;;;;;;11.47;4.70;;;5.60;99.90;;;;;;2062207;28;20232;-70
2023/10/06 03:14:38;;;;;;;6.82;5.07;;;5.60;99.90;;;;;;2078403;28;20258;-70
2023/10/06 03:15:48;;;;;;;10.55;4.88;;;5.60;99.90;;;;;;2078289;28;20220;-69
2023/10/06 03:16:51;;;;;;;6.82;4.63;;;5.60;99.90;;;;;;2075775;28;20655;-70
2023/10/06 03:17:53;;;;;;;6.47;4.80;;;5.60;99.90;;;;;;2071581;28;20317;-69
2023/10/06 03:18:54;;;;;;;11.07;4.70;;;5.70;99.90;;;;;;2076473;28;20224;-70
2023/10/06 03:20:18;;;;;;;7.17;4.97;;;5.60;99.90;;;;;;2078899;28;20315;-69
2023/10/06 03:21:19;;;;;;;8.68;4.80;;;5.70;99.90;;;;;;2078404;28;20224;-69
2023/10/06 03:22:22;;;;;;;9.40;4.80;;;5.60;99.90;;;;;;2069871;28;20231;-70
2023/10/06 03:23:26;;;;;;;10.32;5.00;;;5.60;99.90;;;;;;2062417;28;20229;-69
2023/10/06 03:24:31;;;;;;;8.40;5.30;;;5.60;99.90;;;;;;2078660;28;20228;-69
2023/10/06 03:25:35;;;;;;;6.90;4.78;;;5.60;99.90;;;;;;2077885;28;20240;-69
2023/10/06 03:26:38;;;;;;;9.80;5.25;;;5.50;99.90;;;;;;2070372;28;20703;-69
2023/10/06 03:27:40;;;;;;;7.78;4.72;;;5.50;99.90;;;;;;2070935;28;20233;-69
2023/10/06 03:28:47;;;;;;;8.45;4.85;;;5.50;99.90;;;;;;2070383;28;20256;-69
2023/10/06 03:29:53;;;;;;;6.78;4.22;;;5.50;99.90;;;;;;2071382;28;20236;-69
2023/10/06 03:30:55;;;;;;;8.27;4.78;;;5.50;99.90;;;;;;2070539;28;20726;-69
2023/10/06 03:31:56;;;;;;;7.95;4.57;;;5.50;99.90;;;;;;2061163;28;20230;-69
2023/10/06 03:32:58;;;;;;;8.57;4.85;;;5.50;99.90;;;;;;2069918;28;20229;-69
2023/10/06 03:33:58;;;;;;;9.18;5.22;;;5.50;99.90;;;;;;2077372;28;20225;-69
2023/10/06 03:36:38;;;;;;;8.38;4.95;;;5.50;99.90;;;;;;2075733;28;20960;-69
2023/10/06 03:37:51;;;;;;;10.50;4.65;;;5.50;99.90;;;;;;2064569;28;20251;-70
2023/10/06 03:38:56;;;;;;;6.72;4.30;;;5.50;99.90;;;;;;2065006;28;20316;-69
2023/10/06 03:39:58;;;;;;;7.28;4.57;;;5.50;99.90;;;;;;2072426;28;20233;-69
2023/10/06 03:42:06;;;;;;;7.23;4.23;;;5.50;99.90;;;;;;2068982;28;20271;-70
2023/10/06 03:43:06;;;;;;;6.75;4.13;;;5.50;99.90;;;;;;2068555;28;20730;-70
2023/10/06 03:44:10;;;;;;;10.03;4.70;;;5.50;99.90;;;;;;2070532;28;20197;-70
2023/10/06 03:45:31;;;;;;;9.45;3.97;;;5.40;99.90;;;;;;2078669;28;20232;-70
2023/10/06 03:46:41;;;;;;;7.00;4.60;;;5.40;99.90;;;;;;2075125;28;20240;-70
2023/10/06 03:47:43;;;;;;;6.18;4.47;;;5.40;99.90;;;;;;2070753;28;20229;-69
2023/10/06 03:48:43;;;;;;;7.30;4.85;;;5.40;99.90;;;;;;2078653;28;20224;-70
2023/10/06 03:49:44;;;;;;;6.87;4.53;;;5.40;99.90;;;;;;2075251;28;20648;-69
2023/10/06 03:50:45;;;;;;;7.83;4.63;;;5.50;99.90;;;;;;2074596;28;20224;-69
2023/10/06 03:51:45;;;;;;;10.67;4.60;;;5.50;99.90;;;;;;2075717;28;20748;-70
2023/10/06 03:52:47;;;;;;;8.53;4.73;;;5.50;99.90;;;;;;2067137;28;20237;-71
2023/10/06 03:53:51;;;;;;;7.30;4.60;;;5.40;99.90;;;;;;2062543;28;20233;-69
2023/10/06 03:54:56;;;;;;;7.68;4.55;;;5.50;99.90;;;;;;2078621;28;20238;-69
2023/10/06 03:55:57;;;;;;;7.68;4.55;;;5.50;99.90;;;;;;2076469;28;20243;-70
2023/10/06 03:56:58;;;;;;;9.65;4.95;;;5.40;99.90;;;;;;2070778;28;20798;-70
2023/10/06 03:57:59;;;;;;;7.67;4.50;;;5.50;99.90;;;;;;2078835;28;20235;-70
2023/10/06 03:59:00;;;;;;;7.10;4.63;;;5.40;99.90;;;;;;2078828;28;20698;-69
2023/10/06 04:00:00;;;;;;;7.38;4.22;;;5.50;99.90;;;;;;2069048;28;20222;-70
2023/10/06 04:01:09;;;;;;;7.50;3.97;;;5.50;99.90;;;;;;2061744;28;20236;-69
2023/10/06 04:02:09;;;;;;;7.78;4.30;;;5.50;99.90;;;;;;2078933;28;20185;-70
2023/10/06 04:03:13;;;;;;;6.10;4.10;;;5.50;99.90;;;;;;2077946;28;20228;-70
2023/10/06 04:04:15;;;;;;;6.32;4.43;;;5.40;99.90;;;;;;2067282;28;20185;-70
2023/10/06 04:05:16;;;;;;;5.82;3.97;;;5.20;99.90;;;;;;2071378;28;20235;-70
2023/10/06 04:06:17;;;;;;;6.28;3.90;;;5.20;99.90;;;;;;2078135;28;20200;-70
2023/10/06 04:07:19;;;;;;;7.17;4.07;;;5.20;99.90;;;;;;2079528;28;20227;-70
2023/10/06 04:08:23;;;;;;;7.35;4.50;;;5.20;99.90;;;;;;2078422;28;20302;-70
2023/10/06 04:09:27;;;;;;;7.40;3.92;;;5.20;99.90;;;;;;2078768;28;20629;-70
2023/10/06 04:10:28;;;;;;;6.55;4.20;;;5.30;99.90;;;;;;2078631;28;20232;-70
2023/10/06 04:11:29;;;;;;;8.60;4.93;;;5.30;99.90;;;;;;2077833;28;20307;-70
2023/10/06 04:12:30;;;;;;;8.15;4.82;;;5.30;99.90;;;;;;2078861;28;20733;-69
2023/10/06 04:13:31;;;;;;;8.17;4.90;;;5.30;99.90;;;;;;2071591;28;20231;-70
2023/10/06 04:14:33;;;;;;;10.63;5.10;;;5.30;99.90;;;;;;2070569;28;20256;-69
2023/10/06 04:15:38;;;;;;;7.78;4.50;;;5.30;99.90;;;;;;2069980;28;20228;-69
2023/10/06 04:16:45;;;;;;;6.93;4.75;;;5.30;99.90;;;;;;2077663;28;20240;-69
2023/10/06 04:17:46;;;;;;;10.27;5.20;;;5.20;99.90;;;;;;2077264;28;20235;-69
2023/10/06 04:18:47;;;;;;;9.23;5.60;;;5.10;99.90;;;;;;2063670;28;20608;-68
2023/10/06 04:19:48;;;;;;;9.15;5.60;;;5.00;99.90;;;;;;2061901;28;20238;-68
2023/10/06 04:20:53;;;;;;;10.25;5.60;;;5.00;99.90;;;;;;2070766;28;20311;-68
2023/10/06 04:21:53;;;;;;;7.72;4.60;;;5.00;99.90;;;;;;2070085;28;20275;-68
2023/10/06 04:22:54;;;;;;;10.23;5.47;;;5.10;99.90;;;;;;2073355;28;20326;-69
2023/10/06 04:23:56;;;;;;;9.67;5.37;;;5.10;99.90;;;;;;2078723;28;20263;-70
2023/10/06 04:24:59;;;;;;;9.90;5.40;;;5.20;99.90;;;;;;2076068;28;20264;-69
2023/10/06 04:26:00;;;;;;;7.07;4.75;;;5.20;99.90;;;;;;2062986;28;20707;-68
2023/10/06 04:27:01;;;;;;;8.35;5.28;;;5.20;99.90;;;;;;2068941;28;20229;-69
2023/10/06 04:28:02;;;;;;;8.67;5.00;;;5.20;99.90;;;;;;2065505;28;20186;-69
2023/10/06 04:29:04;;;;;;;9.63;5.47;;;5.30;99.90;;;;;;2061705;28;20860;-69
2023/10/06 04:30:11;;;;;;;7.70;5.10;;;5.30;99.90;;;;;;2077253;28;20192;-69
2023/10/06 04:31:12;;;;;;;9.65;5.50;;;5.30;99.90;;;;;;2077174;28;20661;-69
2023/10/06 04:32:13;;;;;;;8.02;5.00;;;5.30;99.90;;;;;;2077556;28;20219;-69
2023/10/06 04:33:15;;;;;;;8.90;4.90;;;5.30;99.90;;;;;;2065336;28;20212;-69
2023/10/06 04:34:16;;;;;;;6.95;4.50;;;5.30;99.90;;;;;;2062174;28;20193;-69
2023/10/06 04:35:24;;;;;;;8.63;5.27;;;5.30;99.90;;;;;;2077249;28;20212;-69
2023/10/06 04:36:25;;;;;;;10.15;5.55;;;5.30;99.90;;;;;;2078323;28;20244;-69
2023/10/06 04:37:27;;;;;;;8.87;5.00;;;5.30;99.90;;;;;;2077426;28;20587;-69
2023/10/06 04:38:29;;;;;;;9.00;5.00;;;5.30;99.90;;;;;;2070038;28;20287;-69
2023/10/06 04:39:29;;;;;;;8.27;4.68;;;5.30;99.90;;;;;;2077452;28;20237;-69
2023/10/06 04:40:32;;;;;;;8.33;5.07;;;5.30;99.90;;;;;;2069646;28;20291;-69
2023/10/06 04:41:33;;;;;;;11.45;5.38;;;5.30;99.90;;;;;;2076667;28;20262;-69
2023/10/06 04:42:38;;;;;;;7.10;4.97;;;5.30;99.90;;;;;;2078158;28;20224;-69
2023/10/06 04:43:46;;;;;;;9.02;5.03;;;5.20;99.90;;;;;;2074716;28;20236;-69
2023/10/06 04:44:48;;;;;;;8.32;5.25;;;5.30;99.90;;;;;;2075428;28;20702;-69
2023/10/06 04:45:50;;;;;;;8.52;5.07;;;5.30;99.90;;;;;;2078269;28;20239;-69
2023/10/06 04:46:52;;;;;;;7.30;4.50;;;5.30;99.90;;;;;;2077577;28;20225;-69
2023/10/06 04:47:55;;;;;;;11.40;5.20;;;5.30;99.90;;;;;;2069515;28;20235;-70
2023/10/06 04:48:56;;;;;;;6.90;4.65;;;5.30;99.90;;;;;;2070295;28;20225;-69
2023/10/06 04:49:57;;;;;;;9.33;4.97;;;5.30;99.90;;;;;;2070159;28;20253;-70
2023/10/06 04:50:57;;;;;;;7.40;4.37;;;5.30;99.90;;;;;;2069664;28;20301;-70
2023/10/06 04:52:00;;;;;;;9.07;4.80;;;5.30;99.90;;;;;;2062692;28;20234;-69
2023/10/06 04:53:01;;;;;;;7.32;4.75;;;5.20;99.90;;;;;;2068984;28;20220;-70
2023/10/06 04:54:02;;;;;;;8.10;4.53;;;5.20;99.90;;;;;;2078852;28;20272;-70
2023/10/06 04:55:11;;;;;;;7.13;4.45;;;5.20;99.90;;;;;;2079386;28;20567;-70
2023/10/06 04:56:12;;;;;;;7.78;4.63;;;5.20;99.90;;;;;;2079494;28;20216;-70
2023/10/06 04:57:13;;;;;;;8.43;5.23;;;5.20;99.90;;;;;;2079361;28;20619;-70
2023/10/06 04:58:18;;;;;;;8.10;4.33;;;5.10;99.90;;;;;;2071067;28;20189;-70
2023/10/06 04:59:19;;;;;;;7.93;5.10;;;5.10;99.90;;;;;;2071544;28;20195;-70
2023/10/06 05:00:20;;;;;;;9.97;5.13;;;5.10;99.90;;;;;;2071753;28;20185;-70
2023/10/06 05:01:21;;;;;;;9.07;4.83;;;5.20;99.90;;;;;;2071271;28;20268;-69
2023/10/06 05:02:23;;;;;;;8.80;4.67;;;5.20;99.90;;;;;;2079168;28;20548;-69
2023/10/06 05:03:24;;;;;;;8.05;4.70;;;5.20;99.90;;;;;;2078803;28;20599;-69
2023/10/06 05:04:26;;;;;;;8.33;5.17;;;5.20;99.90;;;;;;2071537;28;20308;-69
2023/10/06 05:05:26;;;;;;;6.55;4.97;;;5.10;99.90;;;;;;2079016;28;20235;-69
2023/10/06 05:06:27;;;;;;;7.63;5.27;;;5.00;99.90;;;;;;2079369;28;20232;-69
2023/10/06 05:07:28;;;;;;;5.90;4.37;;;5.00;99.90;;;;;;2071251;28;20226;-69
2023/10/06 05:08:29;;;;;;;7.93;5.07;;;5.10;99.90;;;;;;2078147;28;20678;-69
2023/10/06 05:09:29;;;;;;;9.07;5.50;;;5.10;99.90;;;;;;2079681;28;20236;-69
2023/10/06 05:10:31;;;;;;;8.40;4.60;;;5.10;99.90;;;;;;2079002;28;20303;-70
2023/10/06 05:11:32;;;;;;;8.05;5.13;;;5.20;99.90;;;;;;2071045;28;20749;-69
2023/10/06 05:12:33;;;;;;;7.47;4.80;;;5.20;99.90;;;;;;2079132;28;20295;-69
2023/10/06 05:13:34;;;;;;;7.33;4.90;;;5.10;99.90;;;;;;2079496;28;20223;-69
2023/10/06 05:14:35;;;;;;;6.30;4.57;;;5.10;99.90;;;;;;2079155;28;20232;-69
2023/10/06 05:15:40;;;;;;;9.98;5.57;;;5.10;99.90;;;;;;2079277;28;20472;-69
2023/10/06 05:16:41;;;;;;;8.73;5.07;;;5.00;99.90;;;;;;2077295;28;20236;-69
2023/10/06 05:17:42;;;;;;;8.47;4.90;;;5.10;99.90;;;;;;2078962;28;20235;-69
2023/10/06 05:18:44;;;;;;;8.57;4.80;;;5.10;99.90;;;;;;2079535;28;20243;-69
2023/10/06 05:19:45;;;;;;;7.50;5.03;;;5.10;99.90;;;;;;2071334;28;20253;-69
2023/10/06 05:20:46;;;;;;;9.57;4.80;;;5.10;99.90;;;;;;2079089;28;20761;-69
2023/10/06 05:21:48;;;;;;;8.90;5.40;;;5.20;99.90;;;;;;2080345;28;20236;-69
2023/10/06 05:22:50;;;;;;;8.27;5.43;;;5.20;99.90;;;;;;2077116;28;20260;-69
2023/10/06 05:23:53;;;;;;;9.30;5.20;;;5.10;99.90;;;;;;2079770;28;20647;-69
2023/10/06 05:24:54;;;;;;;7.60;4.25;;;5.20;99.90;;;;;;2080485;28;20232;-69
2023/10/06 05:26:02;;;;;;;7.57;4.30;;;5.20;99.90;;;;;;2080500;28;20472;-69
2023/10/06 05:27:05;;;;;;;8.48;4.63;;;5.20;99.90;;;;;;2079777;28;20424;-69
2023/10/06 05:28:16;;;;;;;8.90;4.78;;;5.20;99.90;;;;;;2080005;28;20188;-69
2023/10/06 05:29:17;;;;;;;8.10;4.47;;;5.20;99.90;;;;;;2077536;28;20185;-69
2023/10/06 05:30:18;;;;;;;7.28;4.70;;;5.20;99.90;;;;;;2078943;28;20189;-69
2023/10/06 05:31:19;;;;;;;7.53;4.80;;;5.20;99.90;;;;;;2071889;28;20219;-69
2023/10/06 05:32:20;;;;;;;12.57;5.07;;;5.20;99.90;;;;;;2078549;28;20177;-69
2023/10/06 05:33:21;;;;;;;8.48;5.22;;;5.20;99.90;;;;;;2079651;28;20237;-69
2023/10/06 05:34:23;;;;;;;7.95;4.82;;;5.20;99.90;;;;;;2071830;28;20301;-69
2023/10/06 05:35:26;;;;;;;8.15;5.25;;;5.20;99.90;;;;;;2079895;28;20311;-69
2023/10/06 05:36:27;;;;;;;7.55;4.95;;;5.20;99.90;;;;;;2077976;28;20264;-69
2023/10/06 05:37:28;;;;;;;7.87;5.03;;;5.20;99.90;;;;;;2080300;28;20232;-69
2023/10/06 05:38:30;;;;;;;8.60;5.53;;;5.20;99.90;;;;;;2080283;28;20241;-68
2023/10/06 05:39:33;;;;;;;7.95;5.30;;;5.30;99.90;;;;;;2080639;28;20251;-68
2023/10/06 05:40:37;;;;;;;8.95;5.95;;;5.30;99.90;;;;;;2079752;28;20225;-68
2023/10/06 05:41:44;;;;;;;8.43;5.07;;;5.30;99.90;;;;;;2071733;28;20225;-68